Index of /ubuntu/dists

[ICO]NameLast modifiedSizeDescription

[PARENTDIR]Parent Directory  -  
[DIR]bionic-20200902192522356055843/2020-09-02 19:25 -  
[DIR]bionic-20240617170022687838311/2024-06-17 17:00 -  
[DIR]bionic/2024-06-17 17:00 -  
[DIR]disco-20200902192528815424380/2020-09-02 19:25 -  
[DIR]disco-20210120224233693711281/2021-01-20 22:42 -  
[DIR]disco-20240617170037518033211/2024-06-17 17:00 -  
[DIR]disco/2024-06-17 17:00 -  
[DIR]eoan-20200902192528960579334/2020-09-02 19:25 -  
[DIR]eoan-20210120224233821013190/2021-01-20 22:42 -  
[DIR]eoan-20240617170038391531112/2024-06-17 17:00 -  
[DIR]eoan/2024-06-17 17:00 -  
[DIR]focal-20240617170001781498414/2024-06-17 17:00 -  
[DIR]focal/2024-06-17 17:00 -  
[DIR]groovy-20200902192528319778664/2020-09-02 19:25 -  
[DIR]groovy-20210120224232474958767/2021-01-20 22:42 -  
[DIR]groovy-20240617170031102714479/2024-06-17 17:00 -  
[DIR]groovy/2024-06-17 17:00 -  
[DIR]hirsute-20210120224233946477129/2021-01-20 22:42 -  
[DIR]hirsute-20240617170040366919242/2024-06-17 17:00 -  
[DIR]hirsute/2024-06-17 17:00 -  
[DIR]impish-20240617170028006853205/2024-06-17 17:00 -  
[DIR]impish/2024-06-17 17:00 -  
[DIR]jammy-20240617170005240726383/2024-06-17 17:00 -  
[DIR]jammy/2024-06-17 17:00 -  
[DIR]kinetic-20240617170036867630245/2024-06-17 17:00 -  
[DIR]kinetic/2024-06-17 17:00 -  
[DIR]lucid-20200902192528638444552/2020-09-02 19:25 -  
[DIR]lucid-20210120224233547057864/2021-01-20 22:42 -  
[DIR]lucid-20240617170034825426247/2024-06-17 17:00 -  
[DIR]lucid/2024-06-17 17:00 -  
[DIR]lunar-20240617170039998916512/2024-06-17 17:00 -  
[DIR]lunar/2024-06-17 17:00 -  
[DIR]mantic-20240617170022227200834/2024-06-17 17:00 -  
[DIR]mantic/2024-06-17 17:00 -  
[DIR]noble-20240617170001415872270/2024-06-17 17:00 -  
[DIR]noble/2024-06-17 17:00 -  
[DIR]precise-20200902192528478354380/2020-09-02 19:25 -  
[DIR]precise-20210120224233387424474/2021-01-20 22:42 -  
[DIR]precise-20240617170032818747082/2024-06-17 17:00 -  
[DIR]precise/2024-06-17 17:00 -  
[DIR]trusty-20240115201421539592128/2024-01-15 20:14 -  
[DIR]trusty-20240617170019946308638/2024-06-17 17:00 -  
[DIR]trusty/2024-06-17 17:00 -  
[DIR]xenial-20200902192526596896619/2020-09-02 19:25 -  
[DIR]xenial-20210120224232220147644/2021-01-20 22:42 -  
[DIR]xenial-20240617170029093870074/2024-06-17 17:00 -  
[DIR]xenial/2024-06-17 17:00 -  

Apache/2.4.29 (Ubuntu) Server at repository.chr.istoph.de Port 80